Time;durP1;ratioP1;P1;durP2;ratioP2;P2;SDS_P1;SDS_P2;PMS_P1;PMS_P2;Temp;Humidity;BMP_temperature;BMP_pressure;BME280_temperature;BME280_humidity;BME280_pressure;Samples;Min_cycle;Max_cycle;Signal;HPM_P1;HPM_P2
2023/08/09 00:02:49;;;;;;;3.10;3.10;;;13.00;77.60;;;;;;6260842;28;20245;-81
2023/08/09 00:05:52;;;;;;;3.47;3.33;;;13.00;77.50;;;;;;6260236;28;20238;-84
2023/08/09 00:08:55;;;;;;;2.80;2.73;;;13.00;77.50;;;;;;6263058;28;21003;-80
2023/08/09 00:11:59;;;;;;;3.63;3.43;;;12.90;77.50;;;;;;6264108;28;20307;-82
2023/08/09 00:15:03;;;;;;;3.50;3.40;;;12.90;77.50;;;;;;6259356;28;20396;-81
2023/08/09 00:18:06;;;;;;;3.07;2.97;;;12.90;77.40;;;;;;6256407;28;20241;-82
2023/08/09 00:21:10;;;;;;;3.30;3.20;;;12.90;77.50;;;;;;6262850;28;20230;-82
2023/08/09 00:24:13;;;;;;;6.03;3.50;;;12.90;77.30;;;;;;6264224;28;20233;-82
2023/08/09 00:27:18;;;;;;;3.07;3.07;;;12.90;77.50;;;;;;6251337;28;20242;-82
2023/08/09 00:30:21;;;;;;;3.50;3.30;;;12.80;77.30;;;;;;6258000;28;20280;-83
2023/08/09 00:33:24;;;;;;;6.73;3.60;;;12.80;77.30;;;;;;6263499;28;20233;-81
2023/08/09 00:36:27;;;;;;;3.40;3.23;;;12.80;77.40;;;;;;6257340;28;20268;-81
2023/08/09 00:39:31;;;;;;;3.33;3.13;;;12.80;77.20;;;;;;6247787;28;20258;-82
2023/08/09 00:42:36;;;;;;;3.13;3.03;;;12.80;77.20;;;;;;6262031;28;20242;-83
2023/08/09 00:45:42;;;;;;;2.77;2.70;;;12.90;77.20;;;;;;6256183;28;22492;-82
2023/08/09 00:48:48;;;;;;;3.20;3.10;;;12.90;77.10;;;;;;6256029;28;20253;-82
2023/08/09 00:51:52;;;;;;;3.70;3.50;;;12.90;77.00;;;;;;6262615;28;20722;-80
2023/08/09 00:54:56;;;;;;;3.40;3.20;;;12.90;76.70;;;;;;6226667;28;20241;-84
2023/08/09 00:58:00;;;;;;;3.03;2.90;;;12.90;76.60;;;;;;6255428;28;20234;-80
2023/08/09 01:01:04;;;;;;;3.13;3.03;;;12.90;76.70;;;;;;6261788;28;20241;-82
2023/08/09 01:04:07;;;;;;;3.30;3.00;;;12.90;76.60;;;;;;6254426;28;20237;-82
2023/08/09 01:07:17;;;;;;;4.17;3.03;;;13.00;76.40;;;;;;6259220;28;20273;-83
2023/08/09 01:10:26;;;;;;;3.47;3.27;;;13.00;76.20;;;;;;6256025;28;20304;-82
2023/08/09 01:13:32;;;;;;;3.13;2.97;;;13.00;76.20;;;;;;6261636;28;20411;-81
2023/08/09 01:16:38;;;;;;;3.27;3.17;;;13.00;76.20;;;;;;6261481;28;20250;-83
2023/08/09 01:19:46;;;;;;;3.30;3.10;;;13.00;76.20;;;;;;6252804;28;20265;-83
2023/08/09 01:22:57;;;;;;;3.00;2.80;;;13.00;76.40;;;;;;6236590;28;20238;-84
2023/08/09 01:26:04;;;;;;;3.00;2.80;;;13.00;76.50;;;;;;6247906;28;20266;-81
2023/08/09 01:29:07;;;;;;;3.47;3.33;;;13.00;76.50;;;;;;6253097;28;20754;-83
2023/08/09 01:32:11;;;;;;;3.13;2.93;;;13.00;76.40;;;;;;6252378;28;20799;-81
2023/08/09 01:35:15;;;;;;;3.30;3.10;;;13.00;76.50;;;;;;6248188;28;20312;-83
2023/08/09 01:38:23;;;;;;;3.20;3.00;;;13.00;76.50;;;;;;6255631;28;20234;-83
2023/08/09 01:41:29;;;;;;;3.33;3.10;;;13.00;76.60;;;;;;6261459;28;20306;-84
2023/08/09 01:44:35;;;;;;;3.50;3.30;;;13.00;76.50;;;;;;6263228;28;20226;-83
2023/08/09 01:47:39;;;;;;;3.17;2.97;;;12.90;76.50;;;;;;6254360;28;20242;-80
2023/08/09 01:50:45;;;;;;;3.30;3.10;;;13.00;76.50;;;;;;6258990;28;20233;-82
2023/08/09 01:53:48;;;;;;;3.27;3.17;;;13.00;76.50;;;;;;6260805;28;20880;-82
2023/08/09 01:56:53;;;;;;;2.97;2.90;;;13.00;76.30;;;;;;6260959;28;20272;-81
2023/08/09 01:59:56;;;;;;;3.33;3.00;;;13.00;76.40;;;;;;6237885;28;20245;-80
2023/08/09 02:02:59;;;;;;;2.97;2.87;;;13.00;76.40;;;;;;6259978;28;20245;-83
2023/08/09 02:06:02;;;;;;;4.20;2.93;;;13.00;76.20;;;;;;6255551;28;20238;-81
2023/08/09 02:09:07;;;;;;;3.20;2.90;;;13.00;76.10;;;;;;6252362;28;20273;-81
2023/08/09 02:12:11;;;;;;;4.00;3.07;;;13.00;76.20;;;;;;6249431;28;20245;-84
2023/08/09 02:15:15;;;;;;;2.70;2.70;;;13.00;76.10;;;;;;6254330;28;20234;-83
2023/08/09 02:18:19;;;;;;;3.07;2.87;;;13.00;76.10;;;;;;6258549;28;20234;-79
2023/08/09 02:21:22;;;;;;;3.60;2.80;;;13.00;76.20;;;;;;6238663;28;20288;-83
2023/08/09 02:24:26;;;;;;;2.87;2.87;;;13.00;76.20;;;;;;6229423;28;20223;-80
2023/08/09 02:27:31;;;;;;;3.47;3.17;;;13.00;76.40;;;;;;6221425;28;20364;-83
2023/08/09 02:30:34;;;;;;;3.47;3.00;;;13.00;76.30;;;;;;6255111;28;20289;-81
2023/08/09 02:33:38;;;;;;;3.87;3.57;;;13.00;76.30;;;;;;6246425;28;20715;-81
2023/08/09 02:36:41;;;;;;;3.37;3.27;;;13.00;76.20;;;;;;6251421;28;20230;-81
2023/08/09 02:39:45;;;;;;;3.30;3.17;;;13.00;76.30;;;;;;6258786;28;20242;-82
2023/08/09 02:42:50;;;;;;;2.97;2.97;;;13.00;76.20;;;;;;6259871;28;20234;-80
2023/08/09 02:45:54;;;;;;;3.17;3.00;;;13.00;76.20;;;;;;6260310;28;20261;-82
2023/08/09 02:48:57;;;;;;;3.43;3.13;;;13.00;76.20;;;;;;6260176;28;20240;-81
2023/08/09 02:52:00;;;;;;;3.43;3.30;;;13.00;76.40;;;;;;6237101;28;20241;-78
2023/08/09 02:55:06;;;;;;;3.40;3.30;;;12.90;76.50;;;;;;6265303;28;20241;-82
2023/08/09 02:58:12;;;;;;;3.33;3.10;;;12.90;76.50;;;;;;6260637;28;20233;-80
2023/08/09 03:01:16;;;;;;;3.47;3.27;;;12.90;76.50;;;;;;6263947;28;20246;-81
2023/08/09 03:04:19;;;;;;;3.20;3.10;;;12.90;76.60;;;;;;6263540;28;20238;-82
2023/08/09 03:07:22;;;;;;;3.70;3.43;;;12.90;76.70;;;;;;6258020;28;20654;-81
2023/08/09 03:10:26;;;;;;;3.33;3.10;;;12.90;76.60;;;;;;6257301;28;20233;-82
2023/08/09 03:13:31;;;;;;;2.97;2.93;;;12.90;76.00;;;;;;6239385;28;20234;-81
2023/08/09 03:16:34;;;;;;;3.17;3.07;;;12.90;75.80;;;;;;6243176;28;20871;-83
2023/08/09 03:19:39;;;;;;;3.20;3.10;;;12.90;75.70;;;;;;6259568;28;20321;-82
2023/08/09 03:22:42;;;;;;;3.07;2.83;;;13.00;75.00;;;;;;6255681;28;20800;-80
2023/08/09 03:25:45;;;;;;;2.80;2.70;;;12.90;75.10;;;;;;6263707;28;20242;-83
2023/08/09 03:28:50;;;;;;;2.90;2.80;;;12.90;74.90;;;;;;6257308;28;20321;-82
2023/08/09 03:31:53;;;;;;;3.03;2.93;;;12.90;74.90;;;;;;6245514;28;20778;-82
2023/08/09 03:34:57;;;;;;;3.13;3.03;;;12.90;75.00;;;;;;6262076;28;20357;-82
2023/08/09 03:38:00;;;;;;;3.50;3.30;;;12.90;75.30;;;;;;6261279;28;20280;-80
2023/08/09 03:41:03;;;;;;;4.47;3.10;;;12.90;75.70;;;;;;6263260;28;20246;-80
2023/08/09 03:44:08;;;;;;;3.40;3.10;;;13.00;75.80;;;;;;6257649;28;20307;-82
2023/08/09 03:47:11;;;;;;;3.30;3.10;;;13.00;75.80;;;;;;6261946;28;20808;-80
2023/08/09 03:50:14;;;;;;;3.27;3.10;;;12.90;76.00;;;;;;6261051;28;20230;-81
2023/08/09 03:53:17;;;;;;;3.30;3.20;;;12.90;76.00;;;;;;6262175;28;20319;-79
2023/08/09 03:56:20;;;;;;;3.33;3.10;;;12.90;76.00;;;;;;6259769;28;20241;-82
2023/08/09 03:59:26;;;;;;;3.43;3.27;;;12.90;75.90;;;;;;6256550;28;20247;-80
2023/08/09 04:02:30;;;;;;;3.57;3.30;;;12.90;75.10;;;;;;6260709;28;20268;-82
2023/08/09 04:05:35;;;;;;;3.30;3.00;;;13.00;75.00;;;;;;6252147;28;20315;-81
2023/08/09 04:08:38;;;;;;;3.10;2.83;;;13.00;75.00;;;;;;6261090;28;20230;-82
2023/08/09 04:11:42;;;;;;;3.07;2.80;;;13.10;74.60;;;;;;6261563;28;20811;-81
2023/08/09 04:14:47;;;;;;;2.80;2.63;;;13.10;74.50;;;;;;6263524;28;20862;-80
2023/08/09 04:17:50;;;;;;;3.70;3.00;;;13.10;74.20;;;;;;6261534;28;20249;-81
2023/08/09 04:20:54;;;;;;;3.43;3.10;;;13.10;74.00;;;;;;6255868;28;20265;-80
2023/08/09 04:23:57;;;;;;;2.87;2.67;;;13.00;73.70;;;;;;6259013;28;20234;-82
2023/08/09 04:27:00;;;;;;;2.60;2.50;;;13.10;73.80;;;;;;6255740;28;20242;-82
2023/08/09 04:30:09;;;;;;;3.53;2.90;;;13.10;73.70;;;;;;6262263;28;20849;-79
2023/08/09 04:33:12;;;;;;;5.80;2.97;;;13.10;73.20;;;;;;6242715;28;20226;-84
2023/08/09 04:36:16;;;;;;;2.90;2.80;;;13.10;73.20;;;;;;6260117;28;20310;-80
2023/08/09 04:39:19;;;;;;;2.70;2.70;;;13.10;73.20;;;;;;6260953;28;20808;-80
2023/08/09 04:42:22;;;;;;;3.10;2.90;;;13.10;73.20;;;;;;6259074;28;20230;-81
2023/08/09 04:45:27;;;;;;;2.90;2.67;;;13.20;73.20;;;;;;6261735;28;20327;-81
2023/08/09 04:48:30;;;;;;;2.90;2.70;;;13.30;72.50;;;;;;6261745;28;20242;-83
2023/08/09 04:51:34;;;;;;;3.53;2.97;;;13.30;72.70;;;;;;6236132;28;20235;-81
2023/08/09 04:54:37;;;;;;;2.90;2.90;;;13.30;72.20;;;;;;6261260;28;20869;-83
2023/08/09 04:57:41;;;;;;;2.70;2.60;;;13.40;72.20;;;;;;6252476;28;20392;-82
2023/08/09 05:00:46;;;;;;;2.57;2.53;;;13.50;71.50;;;;;;6261347;28;20237;-81
2023/08/09 05:03:49;;;;;;;2.80;2.60;;;13.50;71.30;;;;;;6255353;28;20237;-81
2023/08/09 05:06:54;;;;;;;3.33;3.13;;;13.60;71.00;;;;;;6257013;28;20268;-83
2023/08/09 05:09:57;;;;;;;2.70;2.60;;;13.60;70.70;;;;;;6255767;28;20319;-82
2023/08/09 05:13:00;;;;;;;3.90;2.77;;;13.60;69.70;;;;;;6257114;28;20230;-80
2023/08/09 05:16:08;;;;;;;3.10;2.90;;;13.60;70.00;;;;;;6254790;28;20264;-81
2023/08/09 05:19:11;;;;;;;2.80;2.70;;;13.50;69.60;;;;;;6258929;28;20314;-81
2023/08/09 05:22:17;;;;;;;2.97;2.47;;;13.60;69.90;;;;;;6252945;28;20233;-78
2023/08/09 05:25:20;;;;;;;2.90;2.70;;;13.60;70.00;;;;;;6265666;28;20230;-78
2023/08/09 05:28:23;;;;;;;2.73;2.63;;;13.70;69.60;;;;;;6259761;28;20238;-78
2023/08/09 05:31:28;;;;;;;3.63;3.10;;;13.70;69.10;;;;;;6252505;28;20250;-79
2023/08/09 05:34:31;;;;;;;2.50;2.40;;;13.80;69.20;;;;;;6251952;28;20302;-81
2023/08/09 05:37:34;;;;;;;3.00;2.80;;;13.90;69.00;;;;;;6260047;28;20242;-80
2023/08/09 05:40:37;;;;;;;2.97;2.73;;;13.90;69.00;;;;;;6261353;28;20734;-80
2023/08/09 05:43:40;;;;;;;3.57;2.43;;;14.20;68.20;;;;;;6253935;28;20234;-81
2023/08/09 05:46:45;;;;;;;4.13;2.53;;;14.50;67.70;;;;;;6248582;28;20325;-81
2023/08/09 05:49:49;;;;;;;2.70;2.50;;;14.70;66.70;;;;;;6259920;28;20241;-82
2023/08/09 05:52:52;;;;;;;2.80;2.70;;;14.90;66.10;;;;;;6259343;28;20234;-79
2023/08/09 05:55:55;;;;;;;3.60;2.60;;;15.00;65.90;;;;;;6260687;28;20236;-82
2023/08/09 05:58:59;;;;;;;3.30;2.80;;;15.20;65.90;;;;;;6259175;28;20237;-81
2023/08/09 06:02:06;;;;;;;3.70;3.03;;;15.50;65.40;;;;;;6256603;28;21058;-82
2023/08/09 06:05:17;;;;;;;2.33;2.20;;;15.70;64.10;;;;;;6259830;28;20237;-81
2023/08/09 06:08:20;;;;;;;3.87;2.20;;;16.00;63.80;;;;;;6238301;28;20242;-81
2023/08/09 06:11:23;;;;;;;2.90;2.40;;;16.30;63.20;;;;;;6254285;28;20312;-79
2023/08/09 06:14:26;;;;;;;2.57;2.20;;;16.50;63.10;;;;;;6254088;28;20275;-84
2023/08/09 06:17:31;;;;;;;2.53;2.33;;;16.70;61.50;;;;;;6254890;28;20326;-82
2023/08/09 06:20:34;;;;;;;3.53;2.40;;;16.80;62.40;;;;;;6261054;28;20742;-82
2023/08/09 06:23:37;;;;;;;2.60;2.40;;;16.80;62.20;;;;;;6258986;28;20238;-84
2023/08/09 06:26:40;;;;;;;2.93;2.13;;;16.90;61.20;;;;;;6259322;28;20234;-81
2023/08/09 06:29:43;;;;;;;2.73;2.53;;;16.60;62.80;;;;;;6255500;28;20379;-81
2023/08/09 06:32:48;;;;;;;3.70;2.40;;;16.20;62.50;;;;;;6256513;28;20336;-82
2023/08/09 06:35:51;;;;;;;2.60;2.40;;;15.90;63.20;;;;;;6254060;28;20230;-77
2023/08/09 06:38:54;;;;;;;2.60;2.50;;;15.60;63.90;;;;;;6261570;28;20238;-78
2023/08/09 06:41:57;;;;;;;2.87;2.67;;;15.50;64.30;;;;;;6256564;28;20225;-78
2023/08/09 06:45:01;;;;;;;2.63;2.53;;;15.50;64.20;;;;;;6262847;28;20826;-80
2023/08/09 06:48:07;;;;;;;2.63;2.43;;;15.80;64.50;;;;;;6261396;28;20245;-79
2023/08/09 06:51:11;;;;;;;3.83;2.30;;;16.30;63.20;;;;;;6260940;28;20233;-78
2023/08/09 06:54:14;;;;;;;2.53;2.33;;;16.60;62.80;;;;;;6260742;28;20236;-76
2023/08/09 06:57:17;;;;;;;2.43;2.23;;;16.90;62.30;;;;;;6261241;28;20273;-76
2023/08/09 07:00:21;;;;;;;2.63;2.43;;;16.90;62.60;;;;;;6256189;28;20639;-76
2023/08/09 07:03:25;;;;;;;2.50;2.33;;;16.90;62.20;;;;;;6258397;28;20234;-76
2023/08/09 07:06:28;;;;;;;4.43;2.70;;;17.00;62.50;;;;;;6259048;28;20331;-76
2023/08/09 07:09:31;;;;;;;3.40;2.43;;;17.00;62.50;;;;;;6259052;28;20245;-76
2023/08/09 07:12:34;;;;;;;4.00;2.60;;;16.90;63.20;;;;;;6255930;28;20234;-75
2023/08/09 07:15:37;;;;;;;3.80;2.87;;;17.00;62.40;;;;;;6260950;28;20242;-74
2023/08/09 07:18:42;;;;;;;2.87;2.53;;;17.00;62.30;;;;;;6258367;28;20241;-74
2023/08/09 07:21:45;;;;;;;4.73;3.13;;;16.90;62.90;;;;;;6260623;28;20280;-75
2023/08/09 07:24:49;;;;;;;3.53;2.60;;;17.00;62.30;;;;;;6260645;28;20638;-74
2023/08/09 07:27:52;;;;;;;3.60;2.50;;;17.00;61.50;;;;;;6260022;28;20238;-73
2023/08/09 07:30:56;;;;;;;3.40;2.73;;;17.00;60.90;;;;;;6256545;28;20238;-74
2023/08/09 07:34:00;;;;;;;2.93;2.73;;;17.00;61.40;;;;;;6258074;28;20237;-76
2023/08/09 07:37:05;;;;;;;3.57;2.60;;;16.40;63.00;;;;;;6229137;28;20272;-77
2023/08/09 07:40:12;;;;;;;4.43;2.43;;;16.40;63.30;;;;;;6255564;28;20237;-76
2023/08/09 07:43:15;;;;;;;3.70;2.80;;;16.50;63.20;;;;;;6257908;28;20230;-77
2023/08/09 07:46:18;;;;;;;3.33;2.40;;;16.70;62.60;;;;;;6258483;28;20242;-74
2023/08/09 07:49:23;;;;;;;3.27;2.60;;;16.80;62.00;;;;;;6261390;28;20234;-76
2023/08/09 07:52:26;;;;;;;3.40;2.30;;;16.90;61.90;;;;;;6259139;28;20244;-76
2023/08/09 07:55:31;;;;;;;2.80;2.50;;;16.90;62.10;;;;;;6256642;28;20248;-75
2023/08/09 07:58:34;;;;;;;3.20;2.53;;;17.10;62.20;;;;;;6261117;28;20234;-74
2023/08/09 08:01:37;;;;;;;3.83;2.60;;;17.20;61.90;;;;;;6242330;28;20330;-77
2023/08/09 08:04:42;;;;;;;3.37;2.10;;;17.10;61.40;;;;;;6244720;28;20723;-76
2023/08/09 08:07:45;;;;;;;4.20;2.50;;;17.00;61.50;;;;;;6261325;28;20826;-74
2023/08/09 08:10:49;;;;;;;4.17;2.30;;;17.10;61.40;;;;;;6265708;28;20817;-76
2023/08/09 08:13:53;;;;;;;4.03;2.80;;;17.20;60.70;;;;;;6264215;28;20237;-77
2023/08/09 08:16:56;;;;;;;5.07;2.67;;;17.20;61.40;;;;;;6245851;28;20238;-78
2023/08/09 08:20:03;;;;;;;2.67;2.57;;;17.20;61.50;;;;;;6262187;28;20447;-76
2023/08/09 08:23:06;;;;;;;2.30;2.20;;;17.30;61.20;;;;;;6260346;28;20397;-77
2023/08/09 08:26:10;;;;;;;3.33;2.70;;;17.40;61.30;;;;;;6259791;28;20230;-78
2023/08/09 08:29:13;;;;;;;3.37;2.57;;;17.30;61.40;;;;;;6263538;28;20718;-77
2023/08/09 08:32:16;;;;;;;3.07;2.47;;;17.50;62.20;;;;;;6263593;28;20262;-76
2023/08/09 08:35:21;;;;;;;3.27;2.90;;;17.50;61.50;;;;;;6257596;28;20241;-76
2023/08/09 08:38:25;;;;;;;2.77;2.50;;;17.50;60.10;;;;;;6261770;28;20241;-76
2023/08/09 08:41:28;;;;;;;2.83;2.67;;;17.80;60.20;;;;;;6260034;28;20328;-75
2023/08/09 08:44:32;;;;;;;2.10;2.03;;;17.80;59.80;;;;;;6262973;28;20240;-73
2023/08/09 08:47:35;;;;;;;3.37;2.37;;;17.80;58.50;;;;;;6259547;28;20226;-73
2023/08/09 08:50:41;;;;;;;2.67;2.57;;;18.00;58.30;;;;;;6261069;28;20240;-78
2023/08/09 08:53:46;;;;;;;3.30;2.50;;;18.00;59.80;;;;;;6258740;28;20234;-75
2023/08/09 08:56:52;;;;;;;12.87;2.53;;;18.10;58.70;;;;;;6251630;28;20353;-76
2023/08/09 08:59:57;;;;;;;4.17;2.33;;;18.00;57.80;;;;;;6259670;28;20296;-74
2023/08/09 09:03:00;;;;;;;8.53;2.60;;;18.00;59.10;;;;;;6260574;28;20245;-76
2023/08/09 09:06:05;;;;;;;2.33;2.20;;;18.20;58.80;;;;;;6259493;28;20238;-76
2023/08/09 09:09:11;;;;;;;2.30;2.20;;;18.40;58.50;;;;;;6262195;28;20269;-76
2023/08/09 09:12:14;;;;;;;7.33;2.43;;;18.60;58.50;;;;;;6245019;28;20778;-77
2023/08/09 09:15:17;;;;;;;2.53;2.20;;;18.70;57.30;;;;;;6260018;28;20244;-78
2023/08/09 09:18:22;;;;;;;2.60;2.40;;;18.80;57.10;;;;;;6258901;28;20242;-77
2023/08/09 09:21:32;;;;;;;2.63;2.43;;;18.80;58.40;;;;;;6258827;28;20310;-77
2023/08/09 09:24:36;;;;;;;3.10;2.90;;;19.00;56.30;;;;;;6259832;28;20232;-77
2023/08/09 09:27:41;;;;;;;3.13;2.47;;;19.10;56.90;;;;;;6259951;28;20450;-79
2023/08/09 09:30:57;;;;;;;4.03;2.17;;;19.30;55.70;;;;;;6255290;28;20812;-80
2023/08/09 09:34:01;;;;;;;2.80;2.07;;;19.60;55.30;;;;;;6258139;28;20226;-77
2023/08/09 09:37:06;;;;;;;2.10;2.00;;;19.80;54.40;;;;;;6259595;28;20296;-79
2023/08/09 09:40:11;;;;;;;2.67;2.13;;;19.90;54.60;;;;;;6261704;28;20240;-80
2023/08/09 09:43:16;;;;;;;3.10;2.57;;;19.30;54.20;;;;;;6259482;28;20261;-76
2023/08/09 09:46:20;;;;;;;2.20;2.00;;;19.10;55.50;;;;;;6259889;28;20330;-78
2023/08/09 09:49:39;;;;;;;2.73;2.37;;;19.20;56.00;;;;;;6261101;28;20231;-79
2023/08/09 09:52:44;;;;;;;2.60;2.43;;;19.30;56.20;;;;;;6256262;28;20264;-77
2023/08/09 09:55:48;;;;;;;2.13;2.00;;;19.40;54.60;;;;;;6251639;28;20234;-76
2023/08/09 09:58:52;;;;;;;3.07;2.73;;;19.20;54.60;;;;;;6259282;28;20297;-79
2023/08/09 10:01:56;;;;;;;5.13;2.30;;;18.90;54.00;;;;;;6247994;28;20884;-79
2023/08/09 10:05:03;;;;;;;5.07;2.50;;;18.70;54.70;;;;;;6255924;28;20312;-80
2023/08/09 10:08:09;;;;;;;2.70;2.07;;;18.50;55.90;;;;;;6253582;28;20242;-80
2023/08/09 10:11:19;;;;;;;2.43;2.07;;;18.70;55.40;;;;;;6256840;28;20325;-81
2023/08/09 10:14:26;;;;;;;4.10;2.63;;;19.10;54.70;;;;;;6258339;28;20237;-80
2023/08/09 10:17:31;;;;;;;3.40;2.57;;;19.50;54.50;;;;;;6253471;28;20825;-80
2023/08/09 10:20:35;;;;;;;2.80;2.20;;;19.90;53.30;;;;;;6243823;28;20264;-80
2023/08/09 10:23:39;;;;;;;3.00;2.30;;;19.90;53.20;;;;;;6251463;28;20233;-80
2023/08/09 10:26:45;;;;;;;2.40;2.20;;;20.00;52.20;;;;;;6258817;28;20230;-77
2023/08/09 10:29:58;;;;;;;2.37;2.27;;;20.50;51.60;;;;;;6258828;28;20753;-75
2023/08/09 10:33:02;;;;;;;2.50;1.87;;;20.70;52.30;;;;;;6259133;28;20283;-77
2023/08/09 10:36:05;;;;;;;2.60;2.27;;;20.50;51.20;;;;;;6258164;28;20577;-76
2023/08/09 10:39:13;;;;;;;2.67;2.00;;;20.80;52.30;;;;;;6258970;28;20328;-80
2023/08/09 10:42:16;;;;;;;3.53;2.47;;;21.00;52.10;;;;;;6249290;28;20742;-83
2023/08/09 10:45:20;;;;;;;2.50;2.30;;;20.80;52.20;;;;;;6248787;28;20237;-81
2023/08/09 10:48:25;;;;;;;2.73;2.50;;;20.70;52.00;;;;;;6252114;28;20263;-80
2023/08/09 10:51:29;;;;;;;3.60;2.40;;;20.40;52.80;;;;;;6254461;28;20893;-79
2023/08/09 10:54:33;;;;;;;2.40;2.27;;;20.30;53.30;;;;;;6259139;28;20242;-79
2023/08/09 10:57:42;;;;;;;4.93;2.07;;;20.00;53.60;;;;;;6286164;28;20291;-77
2023/08/09 11:00:48;;;;;;;3.17;2.43;;;19.90;54.10;;;;;;6287355;28;20418;-76
2023/08/09 11:03:53;;;;;;;3.00;2.63;;;19.80;54.10;;;;;;6292697;28;21457;-78
2023/08/09 11:06:57;;;;;;;2.30;2.20;;;19.70;53.40;;;;;;6282842;28;20229;-79
2023/08/09 11:10:02;;;;;;;4.37;2.37;;;19.70;53.50;;;;;;6281327;28;20234;-83
2023/08/09 11:13:08;;;;;;;7.27;2.20;;;19.70;53.90;;;;;;6295793;28;20229;-81
2023/08/09 11:16:12;;;;;;;4.43;2.40;;;19.70;55.00;;;;;;6260683;28;20239;-80
2023/08/09 11:19:20;;;;;;;2.00;1.70;;;18.90;56.00;;;;;;6268013;28;20246;-79
2023/08/09 11:22:37;;;;;;;2.30;2.10;;;18.70;57.00;;;;;;6268162;28;20237;-80
2023/08/09 11:25:41;;;;;;;2.07;1.73;;;18.60;57.20;;;;;;6273623;28;20295;-79
2023/08/09 11:28:45;;;;;;;3.20;2.33;;;18.50;57.20;;;;;;6279062;28;20242;-77
2023/08/09 11:31:50;;;;;;;3.07;2.87;;;18.60;56.70;;;;;;6289648;28;20225;-82
2023/08/09 11:34:53;;;;;;;6.30;2.80;;;18.80;56.90;;;;;;6284024;28;21140;-81
2023/08/09 11:37:58;;;;;;;2.80;2.23;;;18.90;56.50;;;;;;6289158;28;20230;-78
2023/08/09 11:41:02;;;;;;;5.13;2.30;;;19.10;55.40;;;;;;6295667;28;20234;-80
2023/08/09 11:44:09;;;;;;;3.53;2.23;;;19.30;55.40;;;;;;6291751;28;20234;-80
2023/08/09 11:47:12;;;;;;;5.77;2.83;;;19.70;54.30;;;;;;6297830;28;20252;-82
2023/08/09 11:50:21;;;;;;;2.47;2.27;;;19.70;54.30;;;;;;6297406;28;20225;-78
2023/08/09 11:53:24;;;;;;;3.40;2.00;;;19.50;55.40;;;;;;6293537;28;20413;-78
2023/08/09 11:56:32;;;;;;;3.50;2.00;;;19.50;55.30;;;;;;6291676;28;20252;-78
2023/08/09 11:59:39;;;;;;;2.57;1.90;;;19.70;54.60;;;;;;6294580;28;20226;-80
2023/08/09 12:02:42;;;;;;;3.83;3.53;;;19.40;54.90;;;;;;6265865;28;20284;-81
2023/08/09 12:05:45;;;;;;;2.13;2.00;;;19.50;55.40;;;;;;6294922;28;20303;-82
2023/08/09 12:08:58;;;;;;;2.70;2.50;;;19.50;55.30;;;;;;6295628;28;20226;-78
2023/08/09 12:12:07;;;;;;;4.50;2.43;;;19.50;55.10;;;;;;6291052;28;20234;-78
2023/08/09 12:15:11;;;;;;;2.37;2.17;;;19.70;54.00;;;;;;6278648;28;20234;-81
2023/08/09 12:18:15;;;;;;;2.30;2.10;;;19.70;54.70;;;;;;6262726;28;20610;-80
2023/08/09 12:21:18;;;;;;;2.13;2.10;;;20.00;54.20;;;;;;6263399;28;20319;-77
2023/08/09 12:24:21;;;;;;;2.70;2.43;;;20.20;54.00;;;;;;6259799;28;20238;-79
2023/08/09 12:27:26;;;;;;;2.13;1.90;;;20.50;54.00;;;;;;6260896;28;20234;-79
2023/08/09 12:30:29;;;;;;;3.60;2.27;;;20.60;53.20;;;;;;6261680;28;20328;-77
2023/08/09 12:33:33;;;;;;;3.53;2.67;;;20.50;52.90;;;;;;6258057;28;20265;-77
2023/08/09 12:36:36;;;;;;;2.27;2.10;;;20.10;53.20;;;;;;6258661;28;20241;-79
2023/08/09 12:39:39;;;;;;;2.90;2.50;;;20.00;53.70;;;;;;6259038;28;20241;-77
2023/08/09 12:42:45;;;;;;;2.77;2.07;;;20.00;53.60;;;;;;6262789;28;20245;-79
2023/08/09 12:45:48;;;;;;;2.50;2.30;;;20.30;53.50;;;;;;6258223;28;20230;-78
2023/08/09 12:48:51;;;;;;;2.27;2.17;;;20.60;53.10;;;;;;6262742;28;20238;-77
2023/08/09 12:51:54;;;;;;;2.07;1.97;;;20.80;52.40;;;;;;6262683;28;20238;-77
2023/08/09 12:54:57;;;;;;;2.30;2.20;;;21.00;52.20;;;;;;6258161;28;20230;-79
2023/08/09 12:58:02;;;;;;;2.37;2.13;;;20.70;52.00;;;;;;6263548;28;20238;-79
2023/08/09 13:01:06;;;;;;;2.33;2.10;;;20.50;52.40;;;;;;6262813;28;20320;-78
2023/08/09 13:04:09;;;;;;;4.03;2.40;;;20.30;53.00;;;;;;6263138;28;20230;-79
2023/08/09 13:07:12;;;;;;;5.00;2.10;;;20.10;53.10;;;;;;6263994;28;20300;-80
2023/08/09 13:10:15;;;;;;;2.20;2.10;;;20.00;53.80;;;;;;6261766;28;20253;-80
2023/08/09 13:13:22;;;;;;;1.90;1.80;;;20.10;54.50;;;;;;6259033;28;20234;-80
2023/08/09 13:16:25;;;;;;;2.53;2.17;;;20.10;53.40;;;;;;6261840;28;20234;-78
2023/08/09 13:19:30;;;;;;;2.67;2.20;;;20.00;53.00;;;;;;6252798;28;20249;-78
2023/08/09 13:22:33;;;;;;;3.30;2.03;;;20.00;52.80;;;;;;6259872;28;20744;-77
2023/08/09 13:25:38;;;;;;;3.27;1.87;;;19.50;54.50;;;;;;6260478;28;20234;-78
2023/08/09 13:28:43;;;;;;;2.70;1.77;;;19.50;54.00;;;;;;6261536;28;20725;-79
2023/08/09 13:31:46;;;;;;;2.20;1.80;;;19.60;53.90;;;;;;6261704;28;20234;-78
2023/08/09 13:34:49;;;;;;;2.30;2.10;;;19.70;53.90;;;;;;6260088;28;20241;-77
2023/08/09 13:37:53;;;;;;;1.80;1.70;;;19.70;53.90;;;;;;6256763;28;20237;-77
2023/08/09 13:40:57;;;;;;;4.57;2.73;;;19.70;54.10;;;;;;6256513;28;20233;-78
2023/08/09 13:44:01;;;;;;;1.90;1.80;;;19.60;54.10;;;;;;6262398;28;20256;-80
2023/08/09 13:47:05;;;;;;;2.60;2.40;;;19.60;54.30;;;;;;6261195;28;20277;-79
2023/08/09 13:50:10;;;;;;;2.60;2.10;;;19.50;55.00;;;;;;6262957;28;20716;-78
2023/08/09 13:53:14;;;;;;;2.53;2.33;;;19.40;55.50;;;;;;6263143;28;20324;-78
2023/08/09 13:56:17;;;;;;;2.73;2.20;;;19.40;55.80;;;;;;6262204;28;20229;-76
2023/08/09 13:59:21;;;;;;;3.30;2.57;;;19.20;56.20;;;;;;6258732;28;20372;-75
2023/08/09 14:02:24;;;;;;;2.30;2.10;;;19.00;56.50;;;;;;6262047;28;20238;-80
2023/08/09 14:05:27;;;;;;;2.57;2.37;;;18.90;56.80;;;;;;6259514;28;20245;-77
2023/08/09 14:08:30;;;;;;;2.33;2.23;;;18.80;57.30;;;;;;6262066;28;20287;-78
2023/08/09 14:11:33;;;;;;;4.43;4.03;;;18.50;58.20;;;;;;6261589;28;20384;-77
2023/08/09 14:14:39;;;;;;;2.00;1.90;;;18.40;58.10;;;;;;6262470;28;20245;-79
2023/08/09 14:17:43;;;;;;;1.90;1.80;;;18.30;57.10;;;;;;6245528;28;20818;-79
2023/08/09 14:20:47;;;;;;;2.87;1.73;;;18.40;56.20;;;;;;6261416;28;20234;-76
2023/08/09 14:23:50;;;;;;;2.27;2.17;;;18.40;56.30;;;;;;6260999;28;20678;-80
2023/08/09 14:26:53;;;;;;;2.13;1.97;;;18.30;55.50;;;;;;6225691;28;20245;-76
2023/08/09 14:29:57;;;;;;;1.97;1.87;;;18.30;55.60;;;;;;6261024;28;20242;-77
2023/08/09 14:33:01;;;;;;;3.27;2.07;;;18.40;55.10;;;;;;6254849;28;20238;-79
2023/08/09 14:36:06;;;;;;;2.10;1.97;;;18.60;54.70;;;;;;6258565;28;20229;-78
2023/08/09 14:39:09;;;;;;;1.90;1.80;;;18.70;55.50;;;;;;6232289;28;20420;-78
2023/08/09 14:42:13;;;;;;;1.90;1.90;;;18.80;55.30;;;;;;6259644;28;20631;-77
2023/08/09 14:45:18;;;;;;;2.47;2.37;;;18.90;54.30;;;;;;6248664;28;20326;-79
2023/08/09 14:48:22;;;;;;;1.97;1.87;;;19.00;54.10;;;;;;6259439;28;20738;-77
2023/08/09 14:51:26;;;;;;;2.37;2.23;;;19.20;53.70;;;;;;6263824;28;20226;-77
2023/08/09 14:54:29;;;;;;;1.90;1.90;;;19.30;53.70;;;;;;6245203;28;20249;-83
2023/08/09 14:57:40;;;;;;;2.47;2.17;;;19.50;52.80;;;;;;6261196;28;20243;-81
2023/08/09 15:00:47;;;;;;;3.00;2.30;;;19.50;52.20;;;;;;6254681;28;20288;-81
2023/08/09 15:03:52;;;;;;;2.90;1.93;;;19.50;52.40;;;;;;6262630;28;20237;-83
2023/08/09 15:06:55;;;;;;;2.20;2.10;;;19.70;52.00;;;;;;6261835;28;20261;-81
2023/08/09 15:09:59;;;;;;;2.10;2.00;;;19.90;51.80;;;;;;6258628;28;20246;-82
2023/08/09 15:13:03;;;;;;;3.07;1.80;;;19.90;51.50;;;;;;6265195;28;20704;-81
2023/08/09 15:16:07;;;;;;;2.40;2.20;;;19.90;51.40;;;;;;6265890;28;20733;-82
2023/08/09 15:19:11;;;;;;;2.37;2.27;;;19.60;51.40;;;;;;6262945;28;20735;-79
2023/08/09 15:22:14;;;;;;;3.07;2.17;;;19.70;51.80;;;;;;6266227;28;20785;-82
2023/08/09 15:25:19;;;;;;;1.90;1.80;;;19.70;51.40;;;;;;6263761;28;20233;-82
2023/08/09 15:28:23;;;;;;;2.27;2.17;;;19.80;51.70;;;;;;6261817;28;20241;-82
2023/08/09 15:31:28;;;;;;;2.17;2.07;;;19.90;51.60;;;;;;6256220;28;20298;-81
2023/08/09 15:34:32;;;;;;;2.33;1.77;;;19.60;51.90;;;;;;6260038;28;20242;-80
2023/08/09 15:37:36;;;;;;;3.73;1.80;;;19.60;52.20;;;;;;6265428;28;20241;-82
2023/08/09 15:40:39;;;;;;;2.33;2.13;;;20.00;52.00;;;;;;6263538;28;20238;-83
2023/08/09 15:43:42;;;;;;;2.17;2.00;;;20.40;51.50;;;;;;6257354;28;20320;-81
2023/08/09 15:46:47;;;;;;;2.23;2.03;;;20.10;51.90;;;;;;6257958;28;20246;-81
2023/08/09 15:49:51;;;;;;;1.80;1.70;;;19.90;52.90;;;;;;6262914;28;20244;-83
2023/08/09 15:52:54;;;;;;;2.53;2.43;;;19.60;53.70;;;;;;6261411;28;20708;-83
2023/08/09 15:55:57;;;;;;;1.80;1.70;;;19.50;54.00;;;;;;6257106;28;20877;-82
2023/08/09 15:59:01;;;;;;;3.97;1.87;;;19.50;53.90;;;;;;6261732;28;20233;-82
2023/08/09 16:02:05;;;;;;;2.07;1.93;;;19.30;54.60;;;;;;6261971;28;20245;-83